Time;durP1;ratioP1;P1;durP2;ratioP2;P2;SDS_P1;SDS_P2;PMS_P1;PMS_P2;Temp;Humidity;BMP_temperature;BMP_pressure;BME280_temperature;BME280_humidity;BME280_pressure;Samples;Min_cycle;Max_cycle;Signal;HPM_P1;HPM_P2
2023/12/25 00:02:25;;;;;;;47.40;21.88;;;;;;;5.87;82.07;99242.31;5047243;28;20106;-75
2023/12/25 00:04:50;;;;;;;48.22;20.63;;;;;;;5.87;82.43;99242.31;5031420;28;20028;-75
2023/12/25 00:07:16;;;;;;;42.33;19.92;;;;;;;5.62;82.61;99234.19;5030303;28;20056;-75
2023/12/25 00:09:41;;;;;;;45.10;18.25;;;;;;;5.55;83.32;99219.06;5041679;28;20055;-74
2023/12/25 00:12:07;;;;;;;32.40;16.88;;;;;;;5.58;83.89;99219.28;5046380;28;20108;-74
2023/12/25 00:14:33;;;;;;;25.38;15.27;;;;;;;5.75;83.69;99227.00;5029566;28;20486;-75
2023/12/25 00:16:59;;;;;;;42.20;20.13;;;;;;;5.61;84.71;99237.28;5031172;28;20037;-75
2023/12/25 00:19:24;;;;;;;44.10;21.98;;;;;;;5.69;84.97;99244.06;5031077;28;20510;-75
2023/12/25 00:21:49;;;;;;;52.47;26.55;;;;;;;5.39;85.52;99249.88;5030402;28;20075;-75
2023/12/25 00:24:15;;;;;;;38.30;24.13;;;;;;;5.13;85.62;99258.66;5048508;28;20031;-75
2023/12/25 00:26:42;;;;;;;41.47;23.10;;;;;;;4.44;89.39;99253.66;5037248;28;20132;-75
2023/12/25 00:29:09;;;;;;;37.95;21.90;;;;;;;4.33;90.24;99248.25;5039041;28;20032;-75
2023/12/25 00:31:35;;;;;;;41.05;24.10;;;;;;;4.32;91.09;99248.56;5049281;28;20025;-75
2023/12/25 00:34:00;;;;;;;34.25;21.20;;;;;;;4.21;91.32;99248.72;5050840;28;20082;-75
2023/12/25 00:36:25;;;;;;;35.65;20.92;;;;;;;4.27;92.69;99248.63;5049959;28;20032;-75
2023/12/25 00:38:51;;;;;;;49.58;24.73;;;;;;;4.45;90.98;99246.97;5049948;28;20416;-74
2023/12/25 00:41:16;;;;;;;42.38;24.10;;;;;;;4.34;90.97;99233.31;5050878;28;20074;-75
2023/12/25 00:43:42;;;;;;;37.83;21.02;;;;;;;4.31;90.87;99236.66;5049495;28;20517;-74
2023/12/25 00:46:08;;;;;;;38.22;20.55;;;;;;;4.31;90.83;99244.97;5048293;28;20050;-74
2023/12/25 00:48:33;;;;;;;37.28;20.50;;;;;;;4.32;89.85;99249.38;5030871;28;20036;-75
2023/12/25 00:50:59;;;;;;;39.35;20.90;;;;;;;4.40;89.27;99242.34;5035183;28;20086;-75
2023/12/25 00:53:24;;;;;;;36.47;20.75;;;;;;;4.17;89.30;99244.91;5050811;28;20029;-75
2023/12/25 00:55:50;;;;;;;42.83;22.30;;;;;;;4.25;90.66;99248.94;5049617;28;20036;-75
2023/12/25 00:58:15;;;;;;;39.80;22.23;;;;;;;4.22;90.57;99255.88;5061814;28;20501;-75
2023/12/25 01:00:40;;;;;;;34.85;20.65;;;;;;;4.22;91.64;99243.97;5070593;28;20452;-75
2023/12/25 01:03:06;;;;;;;41.17;19.98;;;;;;;4.35;93.01;99245.19;5052834;28;20053;-75
2023/12/25 01:05:31;;;;;;;41.85;20.23;;;;;;;4.52;91.74;99258.53;5029267;28;20041;-75
2023/12/25 01:07:57;;;;;;;29.92;19.00;;;;;;;4.48;91.67;99235.31;5030600;28;20021;-75
2023/12/25 01:10:22;;;;;;;34.13;18.27;;;;;;;4.63;90.91;99228.69;5030543;28;20498;-75
2023/12/25 01:12:48;;;;;;;36.67;18.40;;;;;;;4.72;90.84;99229.69;5030253;28;20040;-75
2023/12/25 01:15:13;;;;;;;49.97;23.80;;;;;;;4.82;90.33;99233.41;5030564;28;20383;-75
2023/12/25 01:17:39;;;;;;;51.60;25.73;;;;;;;4.79;89.69;99229.28;5029988;28;20029;-75
2023/12/25 01:20:05;;;;;;;38.75;21.35;;;;;;;4.85;89.56;99228.09;5033569;28;20057;-75
2023/12/25 01:22:30;;;;;;;42.97;21.83;;;;;;;5.08;88.82;99230.19;5048479;28;20112;-75
2023/12/25 01:24:56;;;;;;;29.73;17.27;;;;;;;4.60;90.23;99221.84;5050337;28;20171;-74
2023/12/25 01:27:21;;;;;;;29.95;15.57;;;;;;;4.70;89.77;99215.31;5053740;28;20032;-75
2023/12/25 01:29:47;;;;;;;33.88;16.88;;;;;;;4.56;90.24;99214.44;5070407;28;20044;-74
2023/12/25 01:32:13;;;;;;;28.33;14.88;;;;;;;4.54;90.17;99211.16;5069049;28;20064;-73
2023/12/25 01:34:38;;;;;;;21.67;12.70;;;;;;;4.42;90.63;99214.34;5041421;28;20033;-74
2023/12/25 01:37:04;;;;;;;26.67;14.82;;;;;;;4.37;91.84;99201.41;5047248;28;20029;-75
2023/12/25 01:39:29;;;;;;;35.88;16.30;;;;;;;4.39;91.25;99206.66;5030426;28;20025;-74
2023/12/25 01:41:55;;;;;;;27.30;16.00;;;;;;;4.19;92.36;99203.06;5030435;28;20029;-75
2023/12/25 01:44:20;;;;;;;28.40;16.30;;;;;;;4.32;91.57;99205.06;5029948;28;20034;-75
2023/12/25 01:46:46;;;;;;;36.30;18.77;;;;;;;4.27;91.90;99199.63;5030199;28;20104;-74
2023/12/25 01:49:12;;;;;;;28.45;13.30;;;;;;;4.19;92.41;99189.22;5049246;28;20474;-74
2023/12/25 01:51:37;;;;;;;25.80;14.05;;;;;;;4.03;93.53;99199.66;5053762;28;20056;-74
2023/12/25 01:54:04;;;;;;;23.08;13.10;;;;;;;4.24;92.75;99197.47;5037419;28;20508;-75
2023/12/25 01:56:31;;;;;;;25.15;13.00;;;;;;;4.55;92.72;99187.84;5033592;28;20032;-75
2023/12/25 01:58:56;;;;;;;27.25;15.98;;;;;;;4.44;91.18;99187.19;5065991;28;20036;-74
2023/12/25 02:01:22;;;;;;;18.77;11.88;;;;;;;4.20;92.01;99200.00;5073633;28;20024;-70
2023/12/25 02:03:47;;;;;;;27.40;14.63;;;;;;;3.97;93.63;99201.69;5040146;28;20025;-69
2023/12/25 02:06:13;;;;;;;21.83;13.38;;;;;;;3.85;94.54;99188.31;5033296;28;20547;-70
2023/12/25 02:08:39;;;;;;;28.88;12.77;;;;;;;3.81;95.31;99187.25;5033608;28;20025;-70
2023/12/25 02:11:05;;;;;;;30.85;13.75;;;;;;;4.04;94.47;99193.84;5033383;28;20104;-70
2023/12/25 02:13:30;;;;;;;31.90;13.07;;;;;;;4.18;93.52;99191.19;5044098;28;20475;-70
2023/12/25 02:15:56;;;;;;;21.33;12.82;;;;;;;4.27;92.44;99184.94;5057704;28;20070;-70
2023/12/25 02:18:23;;;;;;;22.23;12.63;;;;;;;4.38;92.33;99202.25;5072035;28;20017;-70
2023/12/25 02:20:48;;;;;;;27.38;14.25;;;;;;;4.28;90.99;99192.97;5068402;28;20086;-70
2023/12/25 02:23:16;;;;;;;26.17;13.00;;;;;;;4.03;92.26;99189.44;5032813;28;20033;-70
2023/12/25 02:26:01;;;;;;;23.65;11.63;;;;;;;4.21;91.67;99187.78;5033292;28;20075;-70
2023/12/25 02:28:27;;;;;;;26.17;14.18;;;;;;;3.91;93.39;99191.81;5045556;28;20036;-70
2023/12/25 02:30:52;;;;;;;19.75;11.57;;;;;;;4.08;92.78;99181.06;5051708;28;20075;-71
2023/12/25 02:33:18;;;;;;;43.08;13.23;;;;;;;4.02;92.44;99196.09;5052196;28;20075;-70
2023/12/25 02:35:43;;;;;;;19.15;11.30;;;;;;;4.11;92.42;99178.81;5051517;28;20027;-70
2023/12/25 02:38:09;;;;;;;25.77;13.35;;;;;;;4.41;91.50;99179.47;5052960;28;20036;-70
2023/12/25 02:40:35;;;;;;;21.83;11.65;;;;;;;4.29;91.12;99193.78;5052782;28;20123;-71
2023/12/25 02:43:01;;;;;;;24.25;12.65;;;;;;;4.04;92.46;99195.78;5049343;28;20020;-70
2023/12/25 02:45:27;;;;;;;23.13;13.68;;;;;;;4.35;92.23;99196.19;5052700;28;20021;-70
2023/12/25 02:47:52;;;;;;;29.65;14.73;;;;;;;4.02;91.30;99198.88;5052790;28;20111;-70
2023/12/25 02:50:18;;;;;;;22.45;12.45;;;;;;;4.25;90.74;99201.88;5052734;28;20017;-70
2023/12/25 02:52:43;;;;;;;23.65;12.68;;;;;;;3.98;92.89;99206.13;5050431;28;20017;-70
2023/12/25 02:55:09;;;;;;;24.33;13.77;;;;;;;3.97;93.15;99198.91;5031520;28;20083;-70
2023/12/25 02:57:34;;;;;;;30.90;15.20;;;;;;;3.52;93.93;99204.75;5047716;28;20043;-70
2023/12/25 03:00:00;;;;;;;22.40;13.13;;;;;;;3.16;96.60;99194.06;5072371;28;20063;-70
2023/12/25 03:02:27;;;;;;;25.73;13.90;;;;;;;3.24;95.83;99198.97;5057705;28;20524;-70
2023/12/25 03:04:53;;;;;;;25.33;13.95;;;;;;;2.93;97.76;99211.16;5052358;28;20386;-70
2023/12/25 03:07:18;;;;;;;24.10;13.20;;;;;;;3.06;97.56;99209.63;5052615;28;20036;-70
2023/12/25 03:09:44;;;;;;;25.15;13.43;;;;;;;2.91;97.84;99207.03;5044232;28;20037;-70
2023/12/25 03:12:09;;;;;;;22.88;12.48;;;;;;;3.02;98.42;99188.44;5041274;28;20029;-71
2023/12/25 03:14:35;;;;;;;21.38;11.05;;;;;;;3.01;98.54;99195.03;5052230;28;20043;-71
2023/12/25 03:17:00;;;;;;;25.38;11.65;;;;;;;3.21;98.50;99197.63;5050720;28;20037;-71
2023/12/25 03:19:26;;;;;;;19.30;11.98;;;;;;;3.30;98.15;99203.31;5049382;28;20033;-71
2023/12/25 03:21:51;;;;;;;22.67;12.40;;;;;;;3.33;97.56;99199.16;5032092;28;20489;-71
2023/12/25 03:24:16;;;;;;;18.55;10.80;;;;;;;3.46;97.48;99201.22;5032196;28;20025;-71
2023/12/25 03:26:43;;;;;;;20.15;10.88;;;;;;;3.57;96.67;99198.34;5045286;28;20036;-72
2023/12/25 03:29:08;;;;;;;24.00;10.90;;;;;;;3.69;95.96;99198.72;5032126;28;20079;-71
2023/12/25 03:31:34;;;;;;;23.58;10.35;;;;;;;3.87;95.84;99201.84;5050570;28;20032;-71
2023/12/25 03:33:59;;;;;;;17.90;8.20;;;;;;;4.01;94.48;99204.69;5051865;28;20021;-71
2023/12/25 03:36:25;;;;;;;13.82;8.55;;;;;;;4.23;93.62;99212.44;5050541;28;20024;-71
2023/12/25 03:38:51;;;;;;;16.88;7.80;;;;;;;4.35;91.78;99210.03;5051808;28;20533;-71
2023/12/25 03:41:16;;;;;;;16.40;9.45;;;;;;;4.48;91.06;99215.94;5042184;28;20407;-71
2023/12/25 03:43:42;;;;;;;16.45;9.88;;;;;;;4.47;90.50;99201.25;5032141;28;20401;-71
2023/12/25 03:46:07;;;;;;;18.77;9.00;;;;;;;4.50;91.28;99222.81;5032601;28;20033;-71
2023/12/25 03:48:33;;;;;;;19.42;9.00;;;;;;;4.64;90.72;99219.25;5051480;28;20021;-71
2023/12/25 03:50:59;;;;;;;14.95;7.93;;;;;;;4.64;89.89;99217.34;5036930;28;20506;-71
2023/12/25 03:53:24;;;;;;;22.08;11.40;;;;;;;4.61;89.04;99217.94;5039035;28;20124;-71
2023/12/25 03:55:50;;;;;;;32.38;15.38;;;;;;;4.62;89.21;99218.75;5050204;28;20028;-71
2023/12/25 03:58:15;;;;;;;38.08;18.65;;;;;;;4.71;88.54;99216.13;5062318;28;20036;-71
2023/12/25 04:00:41;;;;;;;22.27;12.52;;;;;;;4.56;89.27;99218.00;5046662;28;20112;-71
2023/12/25 04:03:06;;;;;;;17.30;9.55;;;;;;;4.64;88.67;99225.66;5031426;28;20021;-71
2023/12/25 04:05:32;;;;;;;16.52;7.68;;;;;;;4.70;88.43;99236.63;5043083;28;20037;-71
2023/12/25 04:07:57;;;;;;;16.70;7.80;;;;;;;4.71;88.52;99227.22;5049884;28;20058;-71
2023/12/25 04:10:23;;;;;;;17.38;8.10;;;;;;;4.84;87.62;99237.53;5033009;28;20029;-71
2023/12/25 04:12:48;;;;;;;14.25;8.80;;;;;;;4.89;86.86;99233.84;5033018;28;20514;-71
2023/12/25 04:15:14;;;;;;;17.38;6.93;;;;;;;4.78;87.87;99231.25;5041840;28;20057;-71
2023/12/25 04:17:39;;;;;;;16.85;9.02;;;;;;;4.84;88.23;99220.06;5029919;28;20037;-71
2023/12/25 04:20:05;;;;;;;34.70;17.30;;;;;;;4.81;87.65;99218.72;5031253;28;20025;-75
2023/12/25 04:22:30;;;;;;;31.40;17.35;;;;;;;4.74;87.44;99207.22;5031127;28;20510;-74
2023/12/25 04:24:56;;;;;;;33.50;19.08;;;;;;;4.81;87.90;99204.88;5041957;28;20024;-74
2023/12/25 04:27:21;;;;;;;23.17;12.35;;;;;;;4.81;88.15;99215.94;5048312;28;20032;-75
2023/12/25 04:29:47;;;;;;;24.67;12.80;;;;;;;4.73;88.19;99227.75;5071035;28;20020;-74
2023/12/25 04:32:13;;;;;;;22.05;12.85;;;;;;;4.61;89.08;99230.97;5070889;28;20090;-74
2023/12/25 04:34:38;;;;;;;18.20;10.30;;;;;;;4.76;88.62;99236.25;5059888;28;20025;-74
2023/12/25 04:37:04;;;;;;;23.55;10.85;;;;;;;4.50;89.85;99241.38;5058882;28;20093;-74
2023/12/25 04:39:29;;;;;;;17.58;11.20;;;;;;;4.32;90.29;99231.94;5069562;28;20031;-75
2023/12/25 04:41:55;;;;;;;18.48;8.88;;;;;;;4.46;89.63;99229.25;5052509;28;20087;-75
2023/12/25 04:44:21;;;;;;;16.60;9.57;;;;;;;4.11;90.98;99228.66;5029727;28;20063;-74
2023/12/25 04:46:46;;;;;;;22.00;10.90;;;;;;;3.74;93.46;99226.34;5030667;28;20030;-75
2023/12/25 04:49:12;;;;;;;34.83;14.73;;;;;;;3.74;94.10;99229.13;5030759;28;20037;-74
2023/12/25 04:51:39;;;;;;;39.03;17.35;;;;;;;3.69;94.29;99229.16;5030910;28;20044;-74
2023/12/25 04:54:05;;;;;;;17.48;8.43;;;;;;;3.53;95.14;99233.22;5030819;28;20029;-74
2023/12/25 04:56:31;;;;;;;23.17;12.55;;;;;;;3.49;95.52;99217.22;5032246;28;20029;-74
2023/12/25 04:58:57;;;;;;;36.65;16.80;;;;;;;3.70;95.33;99222.50;5059109;28;20506;-74
2023/12/25 05:01:22;;;;;;;39.22;18.10;;;;;;;3.70;94.37;99227.22;5050811;28;20033;-75
2023/12/25 05:03:47;;;;;;;34.45;17.88;;;;;;;3.86;94.25;99225.06;5039643;28;20377;-75
2023/12/25 05:06:13;;;;;;;33.97;18.75;;;;;;;3.94;92.71;99232.72;5039970;28;20017;-74
2023/12/25 05:08:39;;;;;;;27.98;18.35;;;;;;;3.91;93.43;99227.78;5038970;28;20029;-74
2023/12/25 05:11:04;;;;;;;26.02;15.27;;;;;;;4.03;92.51;99227.34;5030825;28;20052;-74
2023/12/25 05:13:30;;;;;;;24.45;14.23;;;;;;;4.29;92.28;99244.44;5061790;28;20678;-74
2023/12/25 05:15:56;;;;;;;27.92;14.55;;;;;;;4.27;90.87;99237.56;5049080;28;20075;-74
2023/12/25 05:18:22;;;;;;;25.60;13.07;;;;;;;4.32;90.67;99229.19;5050571;28;20109;-74
2023/12/25 05:20:48;;;;;;;25.20;11.75;;;;;;;4.45;89.96;99224.81;5049194;28;20028;-74
2023/12/25 05:23:13;;;;;;;37.63;20.73;;;;;;;4.13;91.08;99231.94;5048065;28;20041;-74
2023/12/25 05:25:39;;;;;;;38.30;20.35;;;;;;;4.17;91.43;99236.59;5053354;28;20036;-74
2023/12/25 05:28:04;;;;;;;32.08;19.60;;;;;;;4.16;91.82;99239.66;5054766;28;20519;-74
2023/12/25 05:30:31;;;;;;;31.73;18.58;;;;;;;4.03;92.12;99241.19;5045054;28;20034;-74
2023/12/25 05:32:56;;;;;;;29.10;16.13;;;;;;;4.14;92.08;99233.59;5036610;28;20413;-72
2023/12/25 05:35:23;;;;;;;26.40;16.23;;;;;;;3.68;92.10;99237.75;5034247;28;20056;-70
2023/12/25 05:37:49;;;;;;;34.03;20.33;;;;;;;3.64;92.59;99240.31;5034116;28;20064;-71
2023/12/25 05:40:14;;;;;;;59.25;34.45;;;;;;;3.51;94.17;99237.13;5034272;28;20029;-70
2023/12/25 05:42:40;;;;;;;65.18;36.20;;;;;;;3.52;94.57;99243.47;5034360;28;20474;-71
2023/12/25 05:45:06;;;;;;;42.45;25.48;;;;;;;3.53;94.50;99247.06;5040633;28;20052;-70
2023/12/25 05:47:31;;;;;;;59.47;31.08;;;;;;;3.68;94.83;99254.34;5050910;28;20125;-74
2023/12/25 05:49:57;;;;;;;45.08;25.77;;;;;;;3.92;93.59;99248.81;5052450;28;20021;-71
2023/12/25 05:52:22;;;;;;;35.38;19.48;;;;;;;4.00;93.30;99252.88;5052974;28;20029;-73
2023/12/25 05:54:48;;;;;;;22.38;11.25;;;;;;;3.48;93.97;99259.81;5053656;28;20082;-71
2023/12/25 05:57:13;;;;;;;23.90;10.63;;;;;;;3.74;93.91;99244.88;5054552;28;20028;-72
2023/12/25 05:59:39;;;;;;;49.80;24.98;;;;;;;3.71;93.88;99253.78;5073648;28;20082;-70
2023/12/25 06:02:05;;;;;;;31.02;16.73;;;;;;;3.75;94.25;99258.44;5039417;28;20068;-72
2023/12/25 06:04:31;;;;;;;16.88;9.85;;;;;;;3.92;93.82;99257.13;5046156;28;20032;-70
2023/12/25 06:06:56;;;;;;;17.38;9.75;;;;;;;4.16;92.34;99257.09;5053682;28;20036;-71
2023/12/25 06:09:23;;;;;;;31.40;15.88;;;;;;;4.17;92.02;99258.75;5053246;28;20425;-70
2023/12/25 06:11:48;;;;;;;20.20;12.13;;;;;;;4.26;91.19;99236.75;5050143;28;20040;-72
2023/12/25 06:14:14;;;;;;;19.70;10.98;;;;;;;4.39;90.61;99235.16;5051658;28;20029;-71
2023/12/25 06:16:39;;;;;;;28.13;17.48;;;;;;;4.54;89.79;99219.47;5052240;28;20017;-71
2023/12/25 06:19:05;;;;;;;19.85;10.82;;;;;;;4.55;89.49;99215.56;5052222;28;20087;-70
2023/12/25 06:21:30;;;;;;;13.63;7.85;;;;;;;4.61;89.34;99222.66;5051007;28;20406;-71
2023/12/25 06:23:56;;;;;;;19.88;10.10;;;;;;;4.75;89.14;99229.06;5040503;28;20068;-71
2023/12/25 06:26:22;;;;;;;29.65;13.23;;;;;;;4.91;87.79;99237.94;5039075;28;20106;-71
2023/12/25 06:28:48;;;;;;;41.60;16.38;;;;;;;5.02;87.01;99229.47;5043944;28;20033;-72
2023/12/25 06:31:14;;;;;;;53.55;21.02;;;;;;;4.89;87.77;99233.84;5039248;28;20032;-71
2023/12/25 06:33:39;;;;;;;58.03;24.45;;;;;;;4.98;86.34;99256.16;5032642;28;20025;-70
2023/12/25 06:36:05;;;;;;;58.22;29.45;;;;;;;4.69;89.18;99249.69;5037616;28;20389;-71
2023/12/25 06:38:31;;;;;;;31.95;19.58;;;;;;;4.76;87.53;99257.59;5043089;28;20037;-70
2023/12/25 06:40:56;;;;;;;33.60;18.08;;;;;;;4.73;88.46;99261.81;5033017;28;20441;-75
2023/12/25 06:43:21;;;;;;;20.75;12.55;;;;;;;4.83;87.93;99263.59;5033065;28;20025;-74
2023/12/25 06:45:47;;;;;;;23.63;12.40;;;;;;;4.83;87.84;99271.09;5031391;28;20509;-73
2023/12/25 06:48:12;;;;;;;23.50;11.35;;;;;;;4.88;88.17;99259.91;5032717;28;20064;-71
2023/12/25 06:50:38;;;;;;;15.38;10.70;;;;;;;5.11;87.40;99268.41;5040732;28;20036;-73
2023/12/25 06:53:04;;;;;;;22.55;10.88;;;;;;;5.37;87.13;99268.78;5051402;28;20028;-72
2023/12/25 06:55:30;;;;;;;304.23;114.05;;;;;;;5.63;85.88;99246.09;5038283;28;20036;-72
2023/12/25 06:57:55;;;;;;;108.75;56.55;;;;;;;5.87;84.34;99245.09;5046791;28;20032;-72
2023/12/25 07:00:21;;;;;;;50.20;25.90;;;;;;;6.08;83.79;99244.69;5068778;28;20024;-72
2023/12/25 07:02:47;;;;;;;136.88;55.20;;;;;;;6.03;84.11;99254.78;5068525;28;20728;-72
2023/12/25 07:05:12;;;;;;;97.68;46.17;;;;;;;6.23;83.43;99254.66;5058336;28;20036;-72
2023/12/25 07:07:38;;;;;;;52.28;26.17;;;;;;;6.29;83.15;99272.84;5038430;28;20029;-73
2023/12/25 07:10:04;;;;;;;61.28;34.17;;;;;;;6.37;83.28;99268.50;5036575;28;20033;-73
2023/12/25 07:12:29;;;;;;;163.55;68.20;;;;;;;6.59;82.43;99279.66;5034534;28;20040;-71
2023/12/25 07:14:55;;;;;;;80.30;44.28;;;;;;;6.84;81.19;99294.09;5026944;28;20025;-73
2023/12/25 07:17:21;;;;;;;421.83;173.98;;;;;;;6.87;79.64;99295.44;5033672;28;20059;-72
2023/12/25 07:19:47;;;;;;;92.63;42.03;;;;;;;6.98;77.84;99301.56;5043296;28;20508;-72
2023/12/25 07:22:12;;;;;;;55.95;29.55;;;;;;;7.11;78.45;99297.91;5030647;28;20041;-72
2023/12/25 07:24:38;;;;;;;77.60;36.42;;;;;;;7.28;79.70;99302.78;5033858;28;20037;-71
2023/12/25 07:27:04;;;;;;;385.95;150.05;;;;;;;7.43;79.34;99297.97;5037396;28;20035;-71
2023/12/25 07:29:33;;;;;;;66.05;33.70;;;;;;;7.56;79.68;99308.19;5030384;28;20402;-72
2023/12/25 07:31:58;;;;;;;35.95;18.58;;;;;;;7.69;80.65;99303.66;5031850;28;20112;-73
2023/12/25 07:34:24;;;;;;;21.45;12.52;;;;;;;7.84;81.04;99315.53;5038709;28;20116;-70
2023/12/25 07:36:49;;;;;;;99.63;38.83;;;;;;;7.98;81.53;99315.44;5030511;28;20040;-71
2023/12/25 07:39:15;;;;;;;140.13;52.20;;;;;;;8.06;81.27;99302.69;5038753;28;20109;-71
2023/12/25 07:41:46;;;;;;;44.67;25.80;;;;;;;8.47;80.13;99307.06;5049311;28;20032;-73
2023/12/25 07:44:18;;;;;;;50.95;24.98;;;;;;;8.59;80.73;99308.44;5045130;28;20810;-71
2023/12/25 07:46:43;;;;;;;38.15;21.15;;;;;;;8.74;80.72;99305.16;5046875;28;20390;-71
2023/12/25 07:49:09;;;;;;;22.65;13.15;;;;;;;8.91;80.10;99298.78;5037706;28;20033;-73
2023/12/25 07:51:34;;;;;;;48.03;24.05;;;;;;;8.99;81.53;99294.34;5037215;28;20083;-73
2023/12/25 07:54:00;;;;;;;36.38;18.10;;;;;;;9.17;80.57;99288.72;5027920;28;20040;-76
2023/12/25 07:56:26;;;;;;;42.55;21.67;;;;;;;9.30;76.31;99282.19;5037867;28;20493;-73
2023/12/25 07:58:51;;;;;;;28.10;18.15;;;;;;;9.64;74.72;99288.00;5043582;28;20040;-72
2023/12/25 08:01:22;;;;;;;59.95;28.83;;;;;;;9.85;74.85;99304.03;5037746;28;20057;-75
2023/12/25 08:03:49;;;;;;;48.88;25.83;;;;;;;10.07;72.99;99314.13;5040256;28;20029;-75
2023/12/25 08:06:15;;;;;;;86.50;36.40;;;;;;;9.96;71.79;99314.50;5027576;28;20025;-71
2023/12/25 08:08:40;;;;;;;143.82;54.28;;;;;;;10.25;70.74;99320.47;5041010;28;20021;-73
2023/12/25 08:11:05;;;;;;;45.95;26.15;;;;;;;10.45;69.73;99323.69;5041889;28;20033;-74
2023/12/25 08:13:31;;;;;;;100.82;44.25;;;;;;;10.59;70.67;99309.44;5048183;28;20486;-71
2023/12/25 08:15:56;;;;;;;67.47;33.20;;;;;;;10.76;70.65;99312.13;5042314;28;20041;-75
2023/12/25 08:18:22;;;;;;;66.70;25.20;;;;;;;10.90;66.88;99311.84;5034294;28;20021;-73
2023/12/25 08:20:47;;;;;;;112.13;44.20;;;;;;;11.03;68.79;99303.50;5028887;28;20025;-75
2023/12/25 08:23:13;;;;;;;76.35;34.10;;;;;;;11.26;67.88;99312.38;5040081;28;20124;-74
2023/12/25 08:25:38;;;;;;;155.68;65.93;;;;;;;11.44;66.35;99318.63;5046039;28;20643;-73
2023/12/25 08:28:05;;;;;;;139.55;53.95;;;;;;;11.59;65.86;99308.78;5043365;28;20429;-73
2023/12/25 08:30:30;;;;;;;38.85;19.85;;;;;;;11.77;62.30;99303.78;5048398;28;20020;-71
2023/12/25 08:32:56;;;;;;;38.50;20.30;;;;;;;11.95;62.33;99295.16;5048149;28;20056;-74
2023/12/25 08:35:21;;;;;;;31.75;15.82;;;;;;;12.19;61.46;99294.41;5046786;28;20028;-73
2023/12/25 08:37:48;;;;;;;24.20;13.55;;;;;;;12.31;60.40;99292.78;5049193;28;20112;-72
2023/12/25 08:40:13;;;;;;;39.67;18.98;;;;;;;12.38;58.58;99286.56;5029122;28;20099;-73
2023/12/25 08:42:39;;;;;;;21.52;12.43;;;;;;;12.62;56.41;99282.91;5043433;28;20029;-72
2023/12/25 08:45:06;;;;;;;15.63;9.52;;;;;;;12.85;53.62;99277.59;5035660;28;20040;-70
2023/12/25 08:47:32;;;;;;;13.05;8.05;;;;;;;13.06;52.25;99276.56;5028554;28;20040;-70
2023/12/25 08:49:57;;;;;;;16.80;7.85;;;;;;;13.22;51.88;99285.06;5028560;28;20029;-74
2023/12/25 08:52:24;;;;;;;17.42;7.18;;;;;;;13.32;50.64;99266.88;5028516;28;20552;-75
2023/12/25 08:54:50;;;;;;;20.63;11.85;;;;;;;13.53;49.20;99266.69;5043046;28;20060;-74
2023/12/25 08:57:15;;;;;;;22.35;14.75;;;;;;;13.66;48.63;99264.59;5046902;28;20485;-74
2023/12/25 08:59:40;;;;;;;30.05;17.48;;;;;;;13.79;48.29;99273.78;5051747;28;20072;-72
2023/12/25 09:02:06;;;;;;;66.32;29.77;;;;;;;13.95;46.51;99275.78;5049413;28;20036;-76
2023/12/25 09:04:31;;;;;;;27.33;12.98;;;;;;;14.19;46.88;99274.78;5046851;28;20067;-74
2023/12/25 09:06:58;;;;;;;66.20;24.88;;;;;;;14.32;46.48;99264.22;5031966;28;20531;-69
2023/12/25 09:09:24;;;;;;;43.72;19.85;;;;;;;14.36;46.35;99269.94;5032666;28;20033;-71
2023/12/25 09:11:50;;;;;;;60.67;22.10;;;;;;;14.39;46.27;99257.94;5032713;28;20036;-71
2023/12/25 09:14:15;;;;;;;25.08;9.95;;;;;;;14.63;45.33;99270.97;5031329;28;20033;-71
2023/12/25 09:16:41;;;;;;;12.43;6.55;;;;;;;14.78;45.01;99260.88;5031941;28;20034;-71
2023/12/25 09:19:06;;;;;;;12.23;8.73;;;;;;;14.92;43.21;99251.91;5033282;28;20037;-71
2023/12/25 09:21:39;;;;;;;6.50;3.78;;;;;;;14.90;43.63;99240.22;5051889;28;20035;-72
2023/12/25 09:24:05;;;;;;;14.00;3.40;;;;;;;14.96;41.99;99235.94;5038357;28;20534;-71
2023/12/25 09:26:30;;;;;;;8.95;3.58;;;;;;;15.05;42.23;99246.97;5031069;28;20033;-70
2023/12/25 09:28:56;;;;;;;5.55;3.75;;;;;;;15.10;41.16;99231.78;5031325;28;20029;-72
2023/12/25 09:31:21;;;;;;;12.15;4.55;;;;;;;15.12;41.62;99229.38;5046969;28;20038;-72
2023/12/25 09:33:47;;;;;;;8.25;4.55;;;;;;;15.25;42.73;99225.22;5038007;28;20067;-72
2023/12/25 09:36:12;;;;;;;12.85;3.80;;;;;;;15.27;41.07;99217.19;5050692;28;20025;-71
2023/12/25 09:38:38;;;;;;;26.67;5.30;;;;;;;15.43;41.56;99210.63;5052449;28;20105;-71
2023/12/25 09:41:07;;;;;;;8.25;4.32;;;;;;;15.49;40.49;99214.78;5037244;28;20099;-73
2023/12/25 09:43:37;;;;;;;6.40;3.20;;;;;;;15.58;39.12;99206.91;5039846;28;20033;-72
2023/12/25 09:46:02;;;;;;;7.45;3.53;;;;;;;15.68;40.02;99193.34;5036469;28;20040;-70
2023/12/25 09:48:28;;;;;;;15.52;7.93;;;;;;;15.83;39.04;99198.06;5036842;28;20029;-71
2023/12/25 09:50:57;;;;;;;36.88;15.43;;;;;;;15.91;38.63;99192.56;5040829;28;20809;-71
2023/12/25 09:53:23;;;;;;;45.60;16.40;;;;;;;15.99;37.36;99180.19;5039822;28;20048;-70
2023/12/25 09:55:50;;;;;;;25.80;9.90;;;;;;;16.06;37.53;99185.13;5037439;28;20425;-70
2023/12/25 09:58:17;;;;;;;15.85;4.95;;;;;;;16.14;36.70;99187.69;5031772;28;20069;-71
2023/12/25 10:00:42;;;;;;;16.67;8.05;;;;;;;16.25;36.89;99187.84;5031907;28;20038;-70
2023/12/25 10:03:08;;;;;;;8.35;4.70;;;;;;;16.38;36.83;99184.81;5030006;28;20418;-70
2023/12/25 10:05:33;;;;;;;9.23;5.20;;;;;;;16.38;38.21;99182.78;5031235;28;20112;-69
2023/12/25 10:07:59;;;;;;;15.68;8.48;;;;;;;16.45;38.20;99181.28;5029626;28;20036;-70
2023/12/25 10:10:28;;;;;;;10.07;6.80;;;;;;;16.61;37.96;99167.75;5035066;28;20040;-70
2023/12/25 10:12:57;;;;;;;15.05;6.32;;;;;;;16.67;38.07;99162.59;5035804;28;20048;-70
2023/12/25 10:15:23;;;;;;;10.52;6.00;;;;;;;16.69;37.64;99149.72;5031188;28;20041;-72
2023/12/25 10:18:12;;;;;;;9.68;4.75;;;;;;;16.77;37.79;99149.78;5030037;28;20037;-72
2023/12/25 10:20:38;;;;;;;16.23;5.07;;;;;;;16.92;37.81;99143.13;5031415;28;20060;-72
2023/12/25 10:23:13;;;;;;;27.90;8.88;;;;;;;16.97;37.99;99141.97;5047873;28;20095;-73
2023/12/25 10:25:44;;;;;;;10.15;4.15;;;;;;;17.02;37.88;99144.47;5040229;28;20496;-73
2023/12/25 10:28:11;;;;;;;19.45;10.23;;;;;;;17.06;37.26;99158.66;5039535;28;20416;-74
2023/12/25 10:30:37;;;;;;;46.65;20.38;;;;;;;17.21;38.46;99157.59;5044171;28;20481;-73
2023/12/25 10:33:10;;;;;;;32.88;14.20;;;;;;;17.46;38.55;99151.38;5039270;28;20131;-72
2023/12/25 10:35:37;;;;;;;25.83;10.98;;;;;;;17.45;37.74;99144.09;5045244;28;20064;-72
2023/12/25 10:38:07;;;;;;;15.07;7.50;;;;;;;17.59;37.35;99137.75;5033472;28;20053;-73
2023/12/25 10:40:33;;;;;;;8.48;3.90;;;;;;;17.38;36.91;99132.75;5040524;28;20040;-76
2023/12/25 10:42:58;;;;;;;9.35;4.20;;;;;;;17.66;37.00;99129.31;5031319;28;20026;-75
2023/12/25 10:45:30;;;;;;;17.30;5.40;;;;;;;17.55;36.75;99134.06;5030860;28;20079;-75
2023/12/25 10:47:58;;;;;;;13.55;5.30;;;;;;;17.57;37.27;99123.22;5035451;28;20025;-75
2023/12/25 10:50:25;;;;;;;20.50;8.40;;;;;;;17.46;37.38;99113.81;5034886;28;20037;-75
2023/12/25 10:52:52;;;;;;;13.25;6.28;;;;;;;17.77;36.18;99122.94;5033328;28;20040;-74
2023/12/25 10:55:26;;;;;;;17.23;6.70;;;;;;;17.73;35.86;99122.91;5031945;28;20490;-72
2023/12/25 10:57:52;;;;;;;9.90;4.85;;;;;;;17.74;36.11;99118.06;5034159;28;20033;-70
2023/12/25 11:00:20;;;;;;;13.65;6.05;;;;;;;17.85;36.41;99112.47;5038912;28;20458;-70
2023/12/25 11:02:52;;;;;;;11.10;5.68;;;;;;;17.89;36.39;99110.50;5032933;28;20135;-73
2023/12/25 11:05:20;;;;;;;12.38;3.78;;;;;;;18.05;35.35;99113.88;5032796;28;20443;-72
2023/12/25 11:07:45;;;;;;;9.65;4.85;;;;;;;18.10;35.75;99110.69;5043140;28;20060;-72
2023/12/25 11:10:12;;;;;;;6.63;3.72;;;;;;;18.26;35.88;99112.38;5061037;28;20044;-72
2023/12/25 11:12:38;;;;;;;10.35;3.53;;;;;;;18.38;35.19;99112.03;5051174;28;20392;-72
2023/12/25 11:15:05;;;;;;;10.77;3.47;;;;;;;18.49;35.06;99108.44;5039099;28;20029;-73
2023/12/25 11:17:32;;;;;;;6.47;3.22;;;;;;;18.58;33.76;99116.56;5040828;28;20067;-72
2023/12/25 11:19:58;;;;;;;8.68;3.53;;;;;;;18.57;33.95;99117.78;5040845;28;20041;-72